createdAt,value
2022-11-29T00:01:40.442Z,4.34
2022-11-29T00:04:08.816Z,4.60
2022-11-29T00:06:37.040Z,4.57
2022-11-29T00:09:07.894Z,4.56
2022-11-29T00:11:56.851Z,4.63
2022-11-29T00:14:26.960Z,4.60
2022-11-29T00:16:59.237Z,4.59
2022-11-29T00:19:27.977Z,4.58
2022-11-29T00:21:56.006Z,4.52
2022-11-29T00:24:24.063Z,4.53
2022-11-29T00:26:51.924Z,4.48
2022-11-29T00:29:20.460Z,4.40
2022-11-29T00:31:48.448Z,4.44
2022-11-29T00:34:16.313Z,4.45
2022-11-29T00:36:44.267Z,4.38
2022-11-29T00:39:12.557Z,4.40
2022-11-29T00:41:40.544Z,4.43
2022-11-29T00:44:09.269Z,4.43
2022-11-29T00:46:37.561Z,4.47
2022-11-29T00:49:05.754Z,4.41
2022-11-29T00:51:33.712Z,4.32
2022-11-29T00:54:01.943Z,4.35
2022-11-29T00:56:30.981Z,4.54
2022-11-29T00:58:58.871Z,4.43
2022-11-29T01:01:26.814Z,4.41
2022-11-29T01:03:54.845Z,4.43
2022-11-29T01:06:22.922Z,4.45
2022-11-29T01:08:50.983Z,4.39
2022-11-29T01:11:22.796Z,4.38
2022-11-29T01:13:54.174Z,4.34
2022-11-29T01:16:22.942Z,4.43
2022-11-29T01:18:50.963Z,4.36
2022-11-29T01:21:21.730Z,4.55
2022-11-29T01:23:51.285Z,4.50
2022-11-29T01:26:30.117Z,4.48
2022-11-29T01:28:59.028Z,4.45
2022-11-29T01:31:30.901Z,4.26
2022-11-29T01:34:01.318Z,4.47
2022-11-29T01:36:29.877Z,4.32
2022-11-29T01:39:02.554Z,4.45
2022-11-29T01:41:33.235Z,4.39
2022-11-29T01:44:13.237Z,4.44
2022-11-29T01:46:47.301Z,4.43
2022-11-29T01:49:21.656Z,4.35
2022-11-29T01:51:58.925Z,4.45
2022-11-29T01:54:27.046Z,4.35
2022-11-29T01:56:55.041Z,4.33
2022-11-29T01:59:26.128Z,4.39
2022-11-29T02:02:03.336Z,4.45
2022-11-29T02:04:36.195Z,4.34
2022-11-29T02:07:05.317Z,4.37
2022-11-29T02:09:33.225Z,4.40
2022-11-29T02:12:21.107Z,4.27
2022-11-29T02:15:06.805Z,4.39
2022-11-29T02:18:02.681Z,4.33
2022-11-29T02:21:06.679Z,4.26
2022-11-29T02:23:43.643Z,4.45
2022-11-29T02:26:44.322Z,4.31
2022-11-29T02:29:40.090Z,4.25
2022-11-29T02:32:45.613Z,4.31
2022-11-29T02:35:41.509Z,4.24
2022-11-29T02:38:28.391Z,4.25
2022-11-29T02:41:20.693Z,4.27
2022-11-29T02:44:06.975Z,4.33
2022-11-29T02:47:00.149Z,4.30
2022-11-29T02:49:46.232Z,4.21
2022-11-29T02:52:26.334Z,4.32
2022-11-29T02:55:08.300Z,4.20
2022-11-29T02:57:45.919Z,4.13
2022-11-29T03:00:19.491Z,4.20
2022-11-29T03:02:56.973Z,4.21
2022-11-29T03:05:54.222Z,4.13
2022-11-29T03:08:49.431Z,4.14
2022-11-29T03:11:54.819Z,4.31
2022-11-29T03:15:01.465Z,4.20
2022-11-29T03:18:11.458Z,4.25
2022-11-29T03:21:17.911Z,4.02
2022-11-29T03:23:50.614Z,4.25
2022-11-29T03:26:34.670Z,4.19
2022-11-29T03:29:11.470Z,4.07
2022-11-29T03:31:48.241Z,4.11
2022-11-29T03:34:30.367Z,4.20
2022-11-29T03:37:03.639Z,4.14
2022-11-29T03:39:46.188Z,4.18
2022-11-29T03:42:23.493Z,4.10
2022-11-29T03:44:59.883Z,4.07
2022-11-29T03:47:34.281Z,4.26
2022-11-29T03:50:16.704Z,4.20
2022-11-29T03:52:58.050Z,4.25
2022-11-29T03:55:47.686Z,4.25
2022-11-29T03:58:44.575Z,4.40
2022-11-29T04:01:21.671Z,4.25
2022-11-29T04:04:25.036Z,4.35
2022-11-29T04:07:17.535Z,4.25
2022-11-29T04:10:07.441Z,4.30
2022-11-29T04:13:12.558Z,4.29
2022-11-29T04:16:08.624Z,4.24
2022-11-29T04:18:54.925Z,4.30
2022-11-29T04:22:06.372Z,4.25
2022-11-29T04:25:03.450Z,4.29
2022-11-29T04:27:43.636Z,4.28
2022-11-29T04:30:23.133Z,4.34
2022-11-29T04:33:15.544Z,4.29
2022-11-29T04:36:17.704Z,4.33
2022-11-29T04:39:21.423Z,4.30
2022-11-29T04:42:26.810Z,4.32
2022-11-29T04:45:00.712Z,4.35
2022-11-29T04:47:50.475Z,4.35
2022-11-29T04:50:47.754Z,4.24
2022-11-29T04:53:21.520Z,4.35
2022-11-29T04:56:11.232Z,4.25
2022-11-29T04:59:15.657Z,4.26
2022-11-29T05:01:58.727Z,4.27
2022-11-29T05:04:48.007Z,4.26
2022-11-29T05:07:33.934Z,4.31
2022-11-29T05:10:29.681Z,4.31
2022-11-29T05:13:10.925Z,4.31
2022-11-29T05:15:55.403Z,4.35
2022-11-29T05:19:04.544Z,4.34
2022-11-29T05:22:05.664Z,4.34
2022-11-29T05:24:36.515Z,4.27
2022-11-29T05:27:34.824Z,4.24
2022-11-29T05:30:09.608Z,4.28
2022-11-29T05:32:57.253Z,4.29
2022-11-29T05:35:33.987Z,4.36
2022-11-29T05:38:02.228Z,4.38
2022-11-29T05:41:09.527Z,4.40
2022-11-29T05:44:11.268Z,4.38
2022-11-29T05:47:01.521Z,4.25
2022-11-29T05:50:06.163Z,4.28
2022-11-29T05:52:53.836Z,4.21
2022-11-29T05:55:33.684Z,4.20
2022-11-29T05:58:30.093Z,4.22
2022-11-29T06:01:21.047Z,4.19
2022-11-29T06:03:52.216Z,4.21
2022-11-29T06:06:49.320Z,4.21
2022-11-29T06:09:26.994Z,4.32
2022-11-29T06:12:06.789Z,4.19
2022-11-29T06:15:13.657Z,4.27
2022-11-29T06:18:13.960Z,4.01
2022-11-29T06:21:00.735Z,4.19
2022-11-29T06:23:48.492Z,4.29
2022-11-29T06:26:29.323Z,4.19
2022-11-29T06:29:06.660Z,4.22
2022-11-29T06:31:40.022Z,4.16
2022-11-29T06:34:18.074Z,4.25
2022-11-29T06:36:54.836Z,4.23
2022-11-29T06:39:23.567Z,4.17
2022-11-29T06:41:51.570Z,4.11
2022-11-29T06:44:19.766Z,4.18
2022-11-29T06:47:06.247Z,4.13
2022-11-29T06:49:42.231Z,4.07
2022-11-29T06:52:26.693Z,4.19
2022-11-29T06:55:01.279Z,4.24
2022-11-29T06:57:45.279Z,4.17
2022-11-29T07:00:20.279Z,4.19
2022-11-29T07:03:07.065Z,4.22
2022-11-29T07:05:36.037Z,4.26
2022-11-29T07:08:12.375Z,4.06
2022-11-29T07:10:42.360Z,4.25
2022-11-29T07:13:15.993Z,4.29
2022-11-29T07:16:00.247Z,5.36
2022-11-29T07:18:38.343Z,5.53
2022-11-29T07:21:38.352Z,5.60
2022-11-29T07:24:30.884Z,4.55
2022-11-29T07:27:21.162Z,4.53
2022-11-29T07:30:15.316Z,4.37
2022-11-29T07:33:12.634Z,4.53
2022-11-29T07:35:56.101Z,4.32
2022-11-29T07:38:41.615Z,4.32
2022-11-29T07:41:28.013Z,4.41
2022-11-29T07:44:07.699Z,4.40
2022-11-29T07:46:35.730Z,4.38
2022-11-29T07:49:03.691Z,4.46
2022-11-29T07:51:32.168Z,4.40
2022-11-29T07:54:00.217Z,4.35
2022-11-29T07:56:28.134Z,4.48
2022-11-29T07:58:56.056Z,4.47
2022-11-29T08:01:24.035Z,4.53
2022-11-29T08:03:52.010Z,4.32
2022-11-29T08:06:26.519Z,4.18
2022-11-29T08:08:57.750Z,4.39
2022-11-29T08:11:25.869Z,4.37
2022-11-29T08:13:57.986Z,4.45
2022-11-29T08:16:26.262Z,4.50
2022-11-29T08:18:54.366Z,4.47
2022-11-29T08:21:22.380Z,4.51
2022-11-29T08:23:51.117Z,4.48
2022-11-29T08:26:20.963Z,4.56
2022-11-29T08:28:52.705Z,4.27
2022-11-29T08:31:21.494Z,4.53
2022-11-29T08:33:49.430Z,4.60
2022-11-29T08:36:19.730Z,4.69
2022-11-29T08:38:47.880Z,4.37
2022-11-29T08:41:17.158Z,4.57
2022-11-29T08:43:45.160Z,4.50
2022-11-29T08:46:18.304Z,4.57
2022-11-29T08:48:47.575Z,4.71
2022-11-29T08:51:15.760Z,4.71
2022-11-29T08:53:45.999Z,4.69
2022-11-29T08:59:06.750Z,4.75
2022-11-29T09:01:34.687Z,4.73
2022-11-29T09:04:03.111Z,4.73
2022-11-29T09:06:33.379Z,4.78
2022-11-29T09:09:01.350Z,4.64
2022-11-29T09:11:30.685Z,4.80
2022-11-29T09:14:02.362Z,4.81
2022-11-29T09:16:33.768Z,4.90
2022-11-29T09:19:02.891Z,4.89
2022-11-29T09:21:32.474Z,4.96
2022-11-29T09:24:05.494Z,4.90
2022-11-29T09:26:36.324Z,4.92
2022-11-29T09:29:05.986Z,5.08
2022-11-29T09:31:35.238Z,5.07
2022-11-29T09:34:03.897Z,4.99
2022-11-29T09:36:31.994Z,5.08
2022-11-29T09:39:04.623Z,5.00
2022-11-29T09:41:48.382Z,4.95
2022-11-29T09:44:35.130Z,4.99
2022-11-29T09:47:13.496Z,4.99
2022-11-29T09:49:54.472Z,5.00
2022-11-29T09:52:54.800Z,4.95
2022-11-29T09:55:53.410Z,4.96
2022-11-29T09:58:26.905Z,5.02
2022-11-29T10:01:03.497Z,5.14
2022-11-29T10:03:36.318Z,5.23
2022-11-29T10:06:34.170Z,5.25
2022-11-29T10:09:17.151Z,5.27
2022-11-29T10:12:06.011Z,4.88
2022-11-29T10:15:17.089Z,5.16
2022-11-29T10:18:04.942Z,5.24
2022-11-29T10:20:42.447Z,5.21
2022-11-29T10:23:32.614Z,5.37
2022-11-29T10:26:00.766Z,5.45
2022-11-29T10:28:34.442Z,5.65
2022-11-29T10:31:29.166Z,5.59
2022-11-29T10:34:01.372Z,5.51
2022-11-29T10:36:48.200Z,5.68
2022-11-29T10:39:24.735Z,5.70
2022-11-29T10:41:59.813Z,5.86
2022-11-29T10:44:28.942Z,5.78
2022-11-29T10:46:58.759Z,5.85
2022-11-29T10:49:28.546Z,5.90
2022-11-29T10:51:56.422Z,5.71
2022-11-29T10:54:42.675Z,5.61
2022-11-29T10:57:19.275Z,5.61
2022-11-29T11:00:11.482Z,5.91
2022-11-29T11:02:40.040Z,5.96
2022-11-29T11:05:18.829Z,5.85
2022-11-29T11:07:57.795Z,5.85
2022-11-29T11:10:30.894Z,5.93
2022-11-29T11:13:05.475Z,5.97
2022-11-29T11:15:34.038Z,6.17
2022-11-29T11:18:07.338Z,6.01
2022-11-29T11:20:39.371Z,5.89
2022-11-29T11:23:23.611Z,6.27
2022-11-29T11:26:07.385Z,6.07
2022-11-29T11:28:47.114Z,6.30
2022-11-29T11:31:16.310Z,6.40
2022-11-29T11:33:45.668Z,6.31
2022-11-29T11:36:21.660Z,6.04
2022-11-29T11:38:55.439Z,5.79
2022-11-29T11:41:54.280Z,6.08
2022-11-29T11:44:50.111Z,6.07
2022-11-29T11:47:20.902Z,6.07
2022-11-29T11:50:09.085Z,6.25
2022-11-29T11:52:41.932Z,6.31
2022-11-29T11:55:35.259Z,6.27
2022-11-29T11:58:12.184Z,5.79
2022-11-29T12:01:04.422Z,6.23
2022-11-29T12:03:34.885Z,6.40
2022-11-29T12:06:36.977Z,6.34
2022-11-29T12:09:23.038Z,6.42
2022-11-29T12:12:08.103Z,5.95
2022-11-29T12:14:54.047Z,5.72
2022-11-29T12:17:43.654Z,6.35
2022-11-29T12:20:26.817Z,6.34
2022-11-29T12:23:12.910Z,5.76
2022-11-29T12:25:59.248Z,6.37
2022-11-29T12:28:30.418Z,6.44
2022-11-29T12:31:36.020Z,6.12
2022-11-29T12:34:26.753Z,6.34
2022-11-29T12:37:11.680Z,6.30
2022-11-29T12:39:50.573Z,6.07
2022-11-29T12:42:24.518Z,6.24
2022-11-29T12:45:23.635Z,6.35
2022-11-29T12:48:31.012Z,5.95
2022-11-29T12:51:02.127Z,5.99
2022-11-29T12:54:07.059Z,6.20
2022-11-29T12:56:53.786Z,6.32
2022-11-29T12:59:58.681Z,6.39
2022-11-29T13:02:45.374Z,6.44
2022-11-29T13:05:22.474Z,6.47
2022-11-29T13:07:58.588Z,6.32
2022-11-29T13:10:45.243Z,6.40
2022-11-29T13:13:25.309Z,6.21
2022-11-29T13:16:22.990Z,6.42
2022-11-29T13:19:15.547Z,6.40
2022-11-29T13:22:02.913Z,6.43
2022-11-29T13:24:42.936Z,6.40
2022-11-29T13:27:18.584Z,6.49
2022-11-29T13:29:47.059Z,6.30
2022-11-29T13:32:36.245Z,6.34
2022-11-29T13:35:41.364Z,6.17
2022-11-29T13:38:25.579Z,6.34
2022-11-29T13:41:16.383Z,6.21
2022-11-29T13:44:02.833Z,6.25
2022-11-29T13:46:49.442Z,6.34
2022-11-29T13:49:52.845Z,6.23
2022-11-29T13:52:39.512Z,6.31
2022-11-29T13:55:21.886Z,6.28
2022-11-29T14:00:42.817Z,6.25
2022-11-29T14:03:40.211Z,6.37
2022-11-29T14:06:15.093Z,6.19
2022-11-29T14:09:17.771Z,6.17
2022-11-29T14:11:43.410Z,6.18
2022-11-29T14:14:19.221Z,5.98
2022-11-29T14:16:51.011Z,6.08
2022-11-29T14:19:19.216Z,6.14
2022-11-29T14:21:58.738Z,6.19
2022-11-29T14:24:32.443Z,6.22
2022-11-29T14:27:06.028Z,6.18
2022-11-29T14:29:49.509Z,5.99
2022-11-29T14:32:49.415Z,6.02
2022-11-29T14:35:30.302Z,6.06
2022-11-29T14:38:10.100Z,6.06
2022-11-29T14:40:40.655Z,6.07
2022-11-29T14:43:23.287Z,5.98
2022-11-29T14:46:31.725Z,5.83
2022-11-29T14:49:03.627Z,5.95
2022-11-29T14:51:33.537Z,5.97
2022-11-29T14:54:15.453Z,5.97
2022-11-29T14:56:45.126Z,5.96
2022-11-29T14:59:42.725Z,6.01
2022-11-29T15:02:35.078Z,5.98
2022-11-29T15:05:27.401Z,5.89
2022-11-29T15:08:14.085Z,5.91
2022-11-29T15:10:50.758Z,5.89
2022-11-29T15:13:29.126Z,5.79
2022-11-29T15:16:04.299Z,5.89
2022-11-29T15:18:35.330Z,5.85
2022-11-29T15:21:25.020Z,5.85
2022-11-29T15:24:02.698Z,5.76
2022-11-29T15:26:32.134Z,5.78
2022-11-29T15:29:18.598Z,5.68
2022-11-29T15:31:58.563Z,5.56
2022-11-29T15:34:34.542Z,5.64
2022-11-29T15:37:02.625Z,5.87
2022-11-29T15:39:37.441Z,5.70
2022-11-29T15:42:13.794Z,5.71
2022-11-29T15:44:46.541Z,5.53
2022-11-29T15:47:25.771Z,5.59
2022-11-29T15:49:54.505Z,5.69
2022-11-29T15:52:31.887Z,5.59
2022-11-29T15:55:04.200Z,5.41
2022-11-29T15:57:38.138Z,5.54
2022-11-29T16:00:09.279Z,5.36
2022-11-29T16:03:06.386Z,5.48
2022-11-29T16:05:37.552Z,5.41
2022-11-29T16:08:15.264Z,5.48
2022-11-29T16:10:47.514Z,5.33
2022-11-29T16:13:31.475Z,5.25
2022-11-29T16:16:21.557Z,5.23
2022-11-29T16:18:50.699Z,5.31
2022-11-29T16:21:32.563Z,5.27
2022-11-29T16:24:19.868Z,5.29
2022-11-29T16:26:50.288Z,5.33
2022-11-29T16:29:27.329Z,5.34
2022-11-29T16:31:55.830Z,5.20
2022-11-29T16:34:31.142Z,5.05
2022-11-29T16:37:06.355Z,5.13
2022-11-29T16:39:37.765Z,5.13
2022-11-29T16:42:08.425Z,5.14
2022-11-29T16:44:39.178Z,5.16
2022-11-29T16:47:12.519Z,5.19
2022-11-29T16:49:40.427Z,5.16
2022-11-29T16:52:25.069Z,5.20
2022-11-29T16:54:53.026Z,4.98
2022-11-29T16:57:21.569Z,4.98
2022-11-29T16:59:50.110Z,4.99
2022-11-29T17:02:18.488Z,4.94
2022-11-29T17:04:46.823Z,4.97
2022-11-29T17:07:18.734Z,4.97
2022-11-29T17:09:46.714Z,4.91
2022-11-29T17:12:15.113Z,4.84
2022-11-29T17:14:43.141Z,5.02
2022-11-29T17:17:16.510Z,4.88
2022-11-29T17:19:44.916Z,4.89
2022-11-29T17:22:14.410Z,4.90
2022-11-29T17:24:47.700Z,4.96
2022-11-29T17:27:16.398Z,4.90
2022-11-29T17:29:44.342Z,4.94
2022-11-29T17:32:12.259Z,4.81
2022-11-29T17:34:40.270Z,4.98
2022-11-29T17:37:08.135Z,4.95
2022-11-29T17:39:36.078Z,4.94
2022-11-29T17:42:03.990Z,4.86
2022-11-29T17:44:33.996Z,4.98
2022-11-29T17:47:01.906Z,5.05
2022-11-29T17:49:29.829Z,5.13
2022-11-29T17:51:57.896Z,5.04
2022-11-29T17:54:26.212Z,5.03
2022-11-29T17:56:55.151Z,4.95
2022-11-29T17:59:23.089Z,4.94
2022-11-29T18:01:51.053Z,4.83
2022-11-29T18:04:19.033Z,5.02
2022-11-29T18:06:50.290Z,4.96
2022-11-29T18:09:19.604Z,4.92
2022-11-29T18:11:49.951Z,5.02
2022-11-29T18:14:22.147Z,4.84
2022-11-29T18:16:50.562Z,4.96
2022-11-29T18:19:21.472Z,4.94
2022-11-29T18:21:50.323Z,4.92
2022-11-29T18:24:18.608Z,4.92
2022-11-29T18:26:47.052Z,5.00
2022-11-29T18:29:14.943Z,4.91
2022-11-29T18:31:45.015Z,4.91
2022-11-29T18:34:14.360Z,4.89
2022-11-29T18:36:45.149Z,5.00
2022-11-29T18:39:16.027Z,4.90
2022-11-29T18:41:47.179Z,4.96
2022-11-29T18:44:17.471Z,4.94
2022-11-29T18:46:46.195Z,5.00
2022-11-29T18:49:16.483Z,4.82
2022-11-29T18:51:45.533Z,4.88
2022-11-29T18:54:15.941Z,4.86
2022-11-29T18:56:45.553Z,4.82
2022-11-29T18:59:17.831Z,4.79
2022-11-29T19:01:48.034Z,4.79
2022-11-29T19:04:19.480Z,4.70
2022-11-29T19:06:48.252Z,4.58
2022-11-29T19:09:20.988Z,4.56
2022-11-29T19:11:49.788Z,4.37
2022-11-29T19:14:18.838Z,4.34
2022-11-29T19:16:48.798Z,4.41
2022-11-29T19:19:18.660Z,4.33
2022-11-29T19:21:46.921Z,4.22
2022-11-29T19:24:17.591Z,4.28
2022-11-29T19:26:47.531Z,4.09
2022-11-29T19:29:15.954Z,4.03
2022-11-29T19:31:44.740Z,4.02
2022-11-29T19:34:13.373Z,4.06
2022-11-29T19:36:43.439Z,3.83
2022-11-29T19:39:14.616Z,3.85
2022-11-29T19:41:45.105Z,3.76
2022-11-29T19:44:13.345Z,3.68
2022-11-29T19:46:47.005Z,3.64
2022-11-29T19:49:15.029Z,3.60
2022-11-29T19:51:43.621Z,3.63
2022-11-29T19:54:12.153Z,3.45
2022-11-29T19:56:40.199Z,3.43
2022-11-29T19:59:09.013Z,3.31
2022-11-29T20:01:41.262Z,3.38
2022-11-29T20:04:12.374Z,3.43
2022-11-29T20:06:41.927Z,3.44
2022-11-29T20:09:10.794Z,3.25
2022-11-29T20:11:38.906Z,3.28
2022-11-29T20:14:07.493Z,3.33
2022-11-29T20:16:37.936Z,3.39
2022-11-29T20:19:15.457Z,3.28
2022-11-29T20:21:46.391Z,3.32
2022-11-29T20:24:16.057Z,3.19
2022-11-29T20:26:46.103Z,3.30
2022-11-29T20:29:14.796Z,3.26
2022-11-29T20:31:49.617Z,3.36
2022-11-29T20:34:18.828Z,2.82
2022-11-29T20:37:07.449Z,2.92
2022-11-29T20:39:58.306Z,2.90
2022-11-29T20:42:29.467Z,2.78
2022-11-29T20:45:04.027Z,2.77
2022-11-29T20:47:45.017Z,2.53
2022-11-29T20:50:26.011Z,2.76
2022-11-29T20:52:59.778Z,2.65
2022-11-29T20:55:27.875Z,2.48
2022-11-29T20:57:56.249Z,2.51
2022-11-29T21:00:24.484Z,2.59
2022-11-29T21:02:52.517Z,2.44
2022-11-29T21:05:20.368Z,2.58
2022-11-29T21:07:48.409Z,2.51
2022-11-29T21:10:16.469Z,2.61
2022-11-29T21:12:45.807Z,2.50
2022-11-29T21:15:14.630Z,2.75
2022-11-29T21:17:43.346Z,2.66
2022-11-29T21:20:37.496Z,2.68
2022-11-29T21:23:14.522Z,2.41
2022-11-29T21:25:45.528Z,2.35
2022-11-29T21:28:15.265Z,2.36
2022-11-29T21:30:43.761Z,2.30
2022-11-29T21:33:12.086Z,2.52
2022-11-29T21:35:40.353Z,2.62
2022-11-29T21:38:14.911Z,2.59
2022-11-29T21:40:42.826Z,2.56
2022-11-29T21:43:10.720Z,2.41
2022-11-29T21:45:38.732Z,2.51
2022-11-29T21:48:26.751Z,2.35
2022-11-29T21:50:56.579Z,2.31
2022-11-29T21:53:26.401Z,2.41
2022-11-29T21:55:58.925Z,2.43
2022-11-29T21:58:29.075Z,2.25
2022-11-29T22:01:04.848Z,2.44
2022-11-29T22:03:32.778Z,2.41
2022-11-29T22:06:06.107Z,2.34
2022-11-29T22:08:36.171Z,2.15
2022-11-29T22:11:08.951Z,2.37
2022-11-29T22:13:58.421Z,2.48
2022-11-29T22:16:26.341Z,2.48
2022-11-29T22:18:54.769Z,2.29
2022-11-29T22:21:22.647Z,2.56
2022-11-29T22:23:52.625Z,2.52
2022-11-29T22:26:22.495Z,2.43
2022-11-29T22:28:50.511Z,2.49
2022-11-29T22:31:18.428Z,2.52
2022-11-29T22:33:46.360Z,2.48
2022-11-29T22:36:14.425Z,2.31
2022-11-29T22:38:42.377Z,2.37
2022-11-29T22:41:12.165Z,2.43
2022-11-29T22:43:41.476Z,2.15
2022-11-29T22:46:21.523Z,2.08
2022-11-29T22:48:52.714Z,2.25
2022-11-29T22:51:22.702Z,2.17
2022-11-29T22:53:55.477Z,2.36
2022-11-29T22:56:26.006Z,2.37
2022-11-29T22:58:54.452Z,2.09
2022-11-29T23:01:25.567Z,2.10
2022-11-29T23:03:56.273Z,2.04
2022-11-29T23:06:29.519Z,2.10
2022-11-29T23:09:00.082Z,2.14
2022-11-29T23:11:29.485Z,2.03
2022-11-29T23:13:57.738Z,2.10
2022-11-29T23:16:27.713Z,2.18
2022-11-29T23:18:58.125Z,2.15
2022-11-29T23:21:35.216Z,2.28
2022-11-29T23:24:03.469Z,2.32
2022-11-29T23:26:38.940Z,2.29
2022-11-29T23:29:09.268Z,2.51
2022-11-29T23:31:37.298Z,2.39
2022-11-29T23:34:06.532Z,2.36
2022-11-29T23:36:34.809Z,2.46
2022-11-29T23:39:06.609Z,2.50
2022-11-29T23:41:36.372Z,2.35
2022-11-29T23:44:05.073Z,2.48
2022-11-29T23:46:33.343Z,2.32
2022-11-29T23:49:01.263Z,2.43
2022-11-29T23:51:29.174Z,2.51
2022-11-29T23:53:57.191Z,2.67
2022-11-29T23:56:25.214Z,2.65
2022-11-29T23:58:53.098Z,2.50
